Time;durP1;ratioP1;P1;durP2;ratioP2;P2;SDS_P1;SDS_P2;PMS_P1;PMS_P2;Temp;Humidity;BMP_temperature;BMP_pressure;BME280_temperature;BME280_humidity;BME280_pressure;Samples;Min_cycle;Max_cycle;Signal;HPM_P1;HPM_P2
2023/01/15 00:01:00;;;;;;;0.80;0.70;;;11.90;99.90;;;;;;5042610;28;20180;-61
2023/01/15 00:03:27;;;;;;;1.20;0.70;;;11.60;99.90;;;;;;5045571;28;20535;-61
2023/01/15 00:05:52;;;;;;;2.20;2.00;;;11.60;99.90;;;;;;5046677;28;20742;-61
2023/01/15 00:08:18;;;;;;;0.97;0.67;;;11.80;99.90;;;;;;5046855;28;20254;-60
2023/01/15 00:10:44;;;;;;;0.80;0.60;;;11.80;99.90;;;;;;5049319;28;20188;-60
2023/01/15 00:13:09;;;;;;;1.10;0.80;;;11.60;99.90;;;;;;5048228;28;20198;-61
2023/01/15 00:15:35;;;;;;;0.77;0.70;;;11.20;99.90;;;;;;5046647;28;20276;-61
2023/01/15 00:18:01;;;;;;;1.00;0.77;;;11.70;99.90;;;;;;5045201;28;20844;-61
2023/01/15 00:20:27;;;;;;;0.80;0.70;;;11.80;99.90;;;;;;5048112;28;20200;-61
2023/01/15 00:22:53;;;;;;;0.60;0.50;;;11.80;99.90;;;;;;5046744;28;20461;-61
2023/01/15 00:28:03;;;;;;;0.70;0.60;;;11.90;99.90;;;;;;5043168;28;21008;-61
2023/01/15 00:30:28;;;;;;;0.83;0.67;;;11.80;99.90;;;;;;5045617;28;20269;-61
2023/01/15 00:32:54;;;;;;;1.30;0.70;;;11.70;99.90;;;;;;5046441;28;20634;-60
2023/01/15 00:35:22;;;;;;;0.63;0.60;;;11.80;99.90;;;;;;5046024;28;20294;-61
2023/01/15 00:37:48;;;;;;;0.90;0.80;;;11.90;99.90;;;;;;5044432;28;20479;-61
2023/01/15 00:40:16;;;;;;;1.45;0.60;;;12.00;99.90;;;;;;5043541;28;20617;-61
2023/01/15 00:42:42;;;;;;;0.60;0.57;;;12.10;99.90;;;;;;5046393;28;20187;-61
2023/01/15 00:45:09;;;;;;;0.60;0.57;;;12.10;99.90;;;;;;5037642;28;20613;-60
2023/01/15 00:47:40;;;;;;;0.70;0.60;;;12.10;99.90;;;;;;5045161;28;20476;-61
2023/01/15 00:50:09;;;;;;;1.15;0.68;;;11.80;99.90;;;;;;5046917;28;20266;-61
2023/01/15 00:52:35;;;;;;;0.70;0.60;;;11.90;99.90;;;;;;5043561;28;20192;-62
2023/01/15 00:55:00;;;;;;;0.60;0.60;;;12.10;99.90;;;;;;5046428;28;20211;-61
2023/01/15 00:57:26;;;;;;;0.80;0.80;;;11.60;99.90;;;;;;5044491;28;20190;-61
2023/01/15 00:59:51;;;;;;;0.63;0.63;;;11.90;99.90;;;;;;5037066;28;20197;-61
2023/01/15 01:02:17;;;;;;;0.70;0.60;;;11.90;99.90;;;;;;5039328;28;20541;-61
2023/01/15 01:04:43;;;;;;;0.70;0.60;;;11.80;99.90;;;;;;5045187;28;20258;-61
2023/01/15 01:07:08;;;;;;;0.80;0.60;;;12.10;99.90;;;;;;5044246;28;20199;-61
2023/01/15 01:09:34;;;;;;;0.70;0.60;;;11.90;99.90;;;;;;5041897;28;20185;-61
2023/01/15 01:12:00;;;;;;;0.70;0.63;;;11.80;99.90;;;;;;5043716;28;20190;-61
2023/01/15 01:14:26;;;;;;;1.00;0.60;;;11.90;99.90;;;;;;5035910;28;20693;-61
2023/01/15 01:16:51;;;;;;;0.77;0.60;;;12.00;99.90;;;;;;5040757;28;20630;-61
2023/01/15 01:19:20;;;;;;;0.80;0.70;;;11.90;99.90;;;;;;5040453;28;20479;-61
2023/01/15 01:21:47;;;;;;;0.80;0.60;;;12.00;99.90;;;;;;5037804;28;20202;-60
2023/01/15 01:24:16;;;;;;;0.82;0.80;;;11.90;99.90;;;;;;5044762;28;20215;-60
2023/01/15 01:26:45;;;;;;;0.70;0.60;;;11.80;99.90;;;;;;5039507;28;20681;-61
2023/01/15 01:29:19;;;;;;;0.80;0.70;;;12.00;99.90;;;;;;5044295;28;20189;-61
2023/01/15 01:31:45;;;;;;;0.90;0.60;;;11.70;99.90;;;;;;5041005;28;20557;-61
2023/01/15 01:34:12;;;;;;;0.80;0.60;;;11.90;99.90;;;;;;5043129;28;20196;-61
2023/01/15 01:36:39;;;;;;;2.25;0.57;;;11.80;99.90;;;;;;5043577;28;20199;-62
2023/01/15 01:39:06;;;;;;;0.68;0.50;;;11.90;99.90;;;;;;5040732;28;20185;-61
2023/01/15 01:41:33;;;;;;;0.88;0.50;;;12.10;99.90;;;;;;5041606;28;20185;-61
2023/01/15 01:44:08;;;;;;;0.70;0.70;;;12.10;99.90;;;;;;5044832;28;20178;-61
2023/01/15 01:46:35;;;;;;;1.15;0.55;;;12.00;99.90;;;;;;5044265;28;20199;-61
2023/01/15 01:49:07;;;;;;;2.45;0.70;;;12.20;99.90;;;;;;5046549;28;20549;-60
2023/01/15 01:51:47;;;;;;;0.60;0.50;;;12.10;99.90;;;;;;5044774;28;20211;-60
2023/01/15 01:54:19;;;;;;;0.90;0.50;;;11.90;99.90;;;;;;5042764;28;20188;-60
2023/01/15 01:56:48;;;;;;;0.95;0.52;;;12.00;99.90;;;;;;5043348;28;20201;-60
2023/01/15 01:59:14;;;;;;;0.80;0.50;;;11.80;99.90;;;;;;5037580;28;20222;-61
2023/01/15 02:01:40;;;;;;;1.00;0.65;;;11.50;99.90;;;;;;5036987;28;20567;-60
2023/01/15 02:04:08;;;;;;;0.60;0.57;;;12.10;99.90;;;;;;5043789;28;20192;-60
2023/01/15 02:06:34;;;;;;;0.80;0.60;;;11.80;99.90;;;;;;5048519;28;20181;-61
2023/01/15 02:09:00;;;;;;;0.70;0.50;;;11.80;99.90;;;;;;5041230;28;20223;-61
2023/01/15 02:11:26;;;;;;;0.70;0.60;;;12.00;99.90;;;;;;5049986;28;20204;-61
2023/01/15 02:13:59;;;;;;;0.73;0.65;;;11.80;99.90;;;;;;5042135;28;20191;-61
2023/01/15 02:16:39;;;;;;;0.70;0.60;;;11.90;99.90;;;;;;5040215;28;20200;-61
2023/01/15 02:19:13;;;;;;;0.75;0.50;;;12.30;99.90;;;;;;5044488;28;20241;-61
2023/01/15 02:22:17;;;;;;;0.80;0.70;;;12.00;99.90;;;;;;5046854;28;20188;-61
2023/01/15 02:25:13;;;;;;;1.13;0.50;;;12.00;99.90;;;;;;5038784;28;20671;-61
2023/01/15 02:27:46;;;;;;;0.80;0.60;;;12.10;99.90;;;;;;5013664;28;20226;-61
2023/01/15 02:30:14;;;;;;;0.90;0.60;;;11.90;99.90;;;;;;5042238;28;20193;-61
2023/01/15 02:33:13;;;;;;;0.73;0.63;;;11.80;99.90;;;;;;5048930;28;20200;-60
2023/01/15 02:35:47;;;;;;;0.98;0.60;;;12.20;99.90;;;;;;5041802;28;20248;-60
2023/01/15 02:38:22;;;;;;;0.60;0.50;;;11.90;99.90;;;;;;5046370;28;20554;-61
2023/01/15 02:40:52;;;;;;;0.60;0.50;;;12.20;99.90;;;;;;5042646;28;20204;-61
2023/01/15 02:43:19;;;;;;;0.60;0.50;;;12.10;99.90;;;;;;5039791;28;20724;-61
2023/01/15 02:45:48;;;;;;;0.60;0.60;;;12.30;99.90;;;;;;5046212;28;20209;-61
2023/01/15 02:48:19;;;;;;;1.02;0.60;;;12.40;99.90;;;;;;5040646;28;20230;-61
2023/01/15 02:50:49;;;;;;;0.90;0.70;;;12.40;99.90;;;;;;5046994;28;20181;-61
2023/01/15 02:53:21;;;;;;;0.60;0.60;;;12.20;99.90;;;;;;5048773;28;20550;-61
2023/01/15 02:55:50;;;;;;;0.80;0.70;;;12.20;99.90;;;;;;5044097;28;20263;-61
2023/01/15 02:58:24;;;;;;;0.60;0.60;;;12.20;99.90;;;;;;5047748;28;20219;-61
2023/01/15 03:00:53;;;;;;;0.60;0.52;;;12.40;99.90;;;;;;5038926;28;20197;-61
2023/01/15 03:03:56;;;;;;;0.70;0.50;;;12.80;99.90;;;;;;5044410;28;20189;-61
2023/01/15 03:06:44;;;;;;;0.60;0.50;;;12.40;99.90;;;;;;5042053;28;20302;-61
2023/01/15 03:09:09;;;;;;;0.90;0.55;;;12.30;99.90;;;;;;5037119;28;20185;-61
2023/01/15 03:11:42;;;;;;;1.10;0.87;;;12.30;99.90;;;;;;5047096;28;20728;-61
2023/01/15 03:14:29;;;;;;;0.70;0.50;;;12.40;99.90;;;;;;5037618;28;20217;-61
2023/01/15 03:17:05;;;;;;;0.60;0.50;;;12.30;99.90;;;;;;5045319;28;20196;-61
2023/01/15 03:19:36;;;;;;;0.70;0.60;;;12.60;99.90;;;;;;5039482;28;20233;-61
2023/01/15 03:22:15;;;;;;;1.55;0.60;;;12.30;99.90;;;;;;5039540;28;20278;-61
2023/01/15 03:24:47;;;;;;;0.60;0.50;;;12.30;99.90;;;;;;5042559;28;20682;-61
2023/01/15 03:27:14;;;;;;;0.80;0.47;;;12.30;99.90;;;;;;5042477;28;20324;-61
2023/01/15 03:29:46;;;;;;;0.60;0.50;;;12.40;99.90;;;;;;5040577;28;20169;-61
2023/01/15 03:32:13;;;;;;;1.35;0.85;;;12.60;99.90;;;;;;5044464;28;20275;-61
2023/01/15 03:34:46;;;;;;;0.60;0.50;;;12.50;99.90;;;;;;5042205;28;20206;-61
2023/01/15 03:37:12;;;;;;;0.63;0.50;;;12.70;99.90;;;;;;5045464;28;20188;-61
2023/01/15 03:39:40;;;;;;;0.60;0.50;;;12.60;99.90;;;;;;5039754;28;20275;-61
2023/01/15 03:42:24;;;;;;;0.63;0.50;;;12.70;99.90;;;;;;5040122;28;20733;-61
2023/01/15 03:45:21;;;;;;;0.68;0.50;;;12.60;99.90;;;;;;5036355;28;20213;-61
2023/01/15 03:48:14;;;;;;;0.60;0.50;;;12.80;99.90;;;;;;5040629;28;20216;-61
2023/01/15 03:50:56;;;;;;;1.50;0.50;;;12.90;99.90;;;;;;5035840;28;20185;-61
2023/01/15 03:53:24;;;;;;;0.73;0.55;;;12.80;99.90;;;;;;5044279;28;20208;-61
2023/01/15 03:56:04;;;;;;;0.60;0.47;;;12.70;99.90;;;;;;5043832;28;20236;-62
2023/01/15 03:58:45;;;;;;;0.60;0.50;;;12.70;99.90;;;;;;5041106;28;20308;-61
2023/01/15 04:01:13;;;;;;;0.60;0.40;;;13.10;99.90;;;;;;5038889;28;20185;-62
2023/01/15 04:03:40;;;;;;;1.02;0.50;;;12.90;99.90;;;;;;5036326;28;20179;-61
2023/01/15 04:06:06;;;;;;;0.60;0.40;;;12.90;99.90;;;;;;5042020;28;20205;-61
2023/01/15 04:08:37;;;;;;;0.60;0.50;;;13.20;99.90;;;;;;5042627;28;20271;-62
2023/01/15 04:11:02;;;;;;;0.68;0.45;;;12.90;99.90;;;;;;5038843;28;20185;-61
2023/01/15 04:13:28;;;;;;;0.60;0.43;;;13.00;99.90;;;;;;5038031;28;20746;-61
2023/01/15 04:15:54;;;;;;;0.60;0.40;;;13.30;99.90;;;;;;5038272;28;20254;-61
2023/01/15 04:18:20;;;;;;;0.70;0.50;;;13.30;99.90;;;;;;5035321;28;20228;-61
2023/01/15 04:20:46;;;;;;;0.60;0.47;;;13.10;99.90;;;;;;5047950;28;20189;-61
2023/01/15 04:23:12;;;;;;;0.60;0.50;;;13.20;99.90;;;;;;5034548;28;20441;-61
2023/01/15 04:25:39;;;;;;;0.60;0.50;;;13.20;99.90;;;;;;5042479;28;20460;-61
2023/01/15 04:28:05;;;;;;;0.50;0.40;;;13.50;99.90;;;;;;5033285;28;20822;-61
2023/01/15 04:30:31;;;;;;;0.60;0.50;;;13.10;99.90;;;;;;5035350;28;20190;-61
2023/01/15 04:32:57;;;;;;;0.60;0.50;;;13.30;99.90;;;;;;5044410;28;20646;-61
2023/01/15 04:35:22;;;;;;;0.60;0.40;;;13.10;99.90;;;;;;5043230;28;20725;-61
2023/01/15 04:37:48;;;;;;;1.43;0.77;;;13.30;99.90;;;;;;5039429;28;20441;-61
2023/01/15 04:45:45;;;;;;;0.60;0.40;;;13.20;99.90;;;;;;5036724;28;20227;-61
2023/01/15 04:48:14;;;;;;;1.27;0.70;;;13.30;99.90;;;;;;5039687;28;20283;-61
2023/01/15 04:50:39;;;;;;;0.88;0.40;;;13.10;99.90;;;;;;5038077;28;20562;-61
2023/01/15 04:53:05;;;;;;;0.60;0.50;;;13.10;99.90;;;;;;5040429;28;20280;-61
2023/01/15 04:55:31;;;;;;;0.70;0.60;;;13.20;99.90;;;;;;5048522;28;20621;-60
2023/01/15 04:57:56;;;;;;;0.83;0.47;;;13.20;99.90;;;;;;5039931;28;20174;-60
2023/01/15 05:00:22;;;;;;;0.60;0.40;;;12.90;99.90;;;;;;5042194;28;20452;-61
2023/01/15 05:02:48;;;;;;;0.57;0.40;;;13.20;99.90;;;;;;5039196;28;20278;-61
2023/01/15 05:05:14;;;;;;;0.60;0.50;;;13.10;99.90;;;;;;5040004;28;20283;-60
2023/01/15 05:07:40;;;;;;;1.50;0.43;;;12.90;99.90;;;;;;5046774;28;20209;-60
2023/01/15 05:10:06;;;;;;;1.67;0.40;;;13.10;99.90;;;;;;5043586;28;20432;-60
2023/01/15 05:12:31;;;;;;;0.60;0.40;;;12.90;99.90;;;;;;5047893;28;20193;-60
2023/01/15 05:14:57;;;;;;;1.17;0.50;;;12.80;99.90;;;;;;5042319;28;20921;-60
2023/01/15 05:17:22;;;;;;;0.70;0.50;;;13.00;99.90;;;;;;5052411;28;20189;-61
2023/01/15 05:19:48;;;;;;;0.50;0.40;;;13.20;99.90;;;;;;5046930;28;20185;-61
2023/01/15 05:22:13;;;;;;;0.60;0.50;;;12.90;99.90;;;;;;5044214;28;20233;-62
2023/01/15 05:24:39;;;;;;;0.77;0.43;;;13.10;99.90;;;;;;5041803;28;20325;-60
2023/01/15 05:27:04;;;;;;;0.60;0.40;;;13.30;99.90;;;;;;5048110;28;20209;-61
2023/01/15 05:29:30;;;;;;;0.80;0.50;;;13.10;99.90;;;;;;5044851;28;20182;-61
2023/01/15 05:31:56;;;;;;;0.50;0.40;;;13.20;99.90;;;;;;5038983;28;20281;-60
2023/01/15 05:34:22;;;;;;;4.33;0.60;;;12.00;99.90;;;;;;5047000;28;20172;-59
2023/01/15 05:36:47;;;;;;;0.60;0.40;;;12.10;99.90;;;;;;5040343;28;20258;-60
2023/01/15 05:39:13;;;;;;;0.80;0.45;;;12.00;99.90;;;;;;5038866;28;20289;-65
2023/01/15 05:41:48;;;;;;;0.60;0.40;;;11.00;99.90;;;;;;5038471;28;20559;-66
2023/01/15 05:44:35;;;;;;;0.80;0.38;;;11.00;99.90;;;;;;5041212;28;20178;-63
2023/01/15 05:47:02;;;;;;;0.70;0.47;;;10.80;99.90;;;;;;5041594;28;20307;-61
2023/01/15 05:49:30;;;;;;;0.50;0.40;;;10.60;99.90;;;;;;5040155;28;20210;-61
2023/01/15 05:51:57;;;;;;;0.57;0.40;;;10.60;99.90;;;;;;5042281;28;20232;-61
2023/01/15 05:54:25;;;;;;;0.60;0.40;;;10.20;99.90;;;;;;5043715;28;20184;-61
2023/01/15 05:56:52;;;;;;;0.60;0.40;;;10.50;99.90;;;;;;5038280;28;20190;-61
2023/01/15 05:59:20;;;;;;;0.80;0.40;;;10.00;99.90;;;;;;5042414;28;20193;-61
2023/01/15 06:01:46;;;;;;;0.50;0.40;;;10.10;99.90;;;;;;5040313;28;20269;-63
2023/01/15 06:04:14;;;;;;;0.50;0.40;;;10.10;99.90;;;;;;5036292;28;20277;-64
2023/01/15 06:06:41;;;;;;;0.70;0.65;;;10.10;99.90;;;;;;5037540;28;20206;-60
2023/01/15 06:09:07;;;;;;;0.50;0.40;;;9.80;99.90;;;;;;5036572;28;20190;-61
2023/01/15 06:11:32;;;;;;;0.50;0.40;;;9.70;99.90;;;;;;5041347;28;20190;-62
2023/01/15 06:13:59;;;;;;;0.50;0.40;;;9.70;99.90;;;;;;5038993;28;20683;-61
2023/01/15 06:16:25;;;;;;;0.65;0.47;;;9.80;99.90;;;;;;5036036;28;20337;-60
2023/01/15 06:18:50;;;;;;;1.42;1.00;;;9.80;99.90;;;;;;5039149;28;20574;-61
2023/01/15 06:21:17;;;;;;;0.60;0.50;;;9.90;99.90;;;;;;5042281;28;20234;-61
2023/01/15 06:23:43;;;;;;;0.60;0.40;;;9.70;99.90;;;;;;5038533;28;20190;-61
2023/01/15 06:26:15;;;;;;;0.50;0.40;;;9.70;99.90;;;;;;5041241;28;20213;-62
2023/01/15 06:28:41;;;;;;;0.60;0.50;;;9.60;99.90;;;;;;5040556;28;20210;-62
2023/01/15 06:31:10;;;;;;;0.90;0.50;;;9.50;99.90;;;;;;5038017;28;20182;-62
2023/01/15 06:33:36;;;;;;;0.70;0.70;;;9.60;99.90;;;;;;5036158;28;20191;-60
2023/01/15 06:36:07;;;;;;;0.70;0.40;;;9.50;99.90;;;;;;5037121;28;20584;-60
2023/01/15 06:38:33;;;;;;;0.60;0.50;;;9.70;99.90;;;;;;5035189;28;20244;-63
2023/01/15 06:41:03;;;;;;;2.87;0.50;;;9.30;99.90;;;;;;5046610;28;20181;-65
2023/01/15 06:48:58;;;;;;;0.60;0.50;;;9.10;99.90;;;;;;5039018;28;20208;-60
2023/01/15 06:51:24;;;;;;;1.13;0.50;;;9.00;99.90;;;;;;5039897;28;20584;-62
2023/01/15 06:53:50;;;;;;;0.60;0.40;;;9.40;99.90;;;;;;5045749;28;20218;-60
2023/01/15 06:56:15;;;;;;;0.60;0.50;;;9.20;99.90;;;;;;5048151;28;20697;-60
2023/01/15 06:58:41;;;;;;;0.60;0.50;;;9.40;99.90;;;;;;5045155;28;20688;-61
2023/01/15 07:01:12;;;;;;;0.60;0.50;;;9.40;99.90;;;;;;5040068;28;20186;-61
2023/01/15 07:03:38;;;;;;;1.02;0.50;;;9.00;99.90;;;;;;5044464;28;20267;-61
2023/01/15 07:06:09;;;;;;;0.70;0.40;;;8.90;99.90;;;;;;5041437;28;20233;-61
2023/01/15 07:08:35;;;;;;;0.60;0.40;;;8.90;99.90;;;;;;5048693;28;20211;-60
2023/01/15 07:11:18;;;;;;;0.60;0.40;;;9.00;99.90;;;;;;5041509;28;20190;-61
2023/01/15 07:13:44;;;;;;;1.13;0.73;;;8.60;99.90;;;;;;5046386;28;20190;-61
2023/01/15 07:16:25;;;;;;;0.70;0.50;;;8.70;99.90;;;;;;5040730;28;20262;-61
2023/01/15 07:18:51;;;;;;;0.60;0.40;;;8.30;99.90;;;;;;5043218;28;20220;-61
2023/01/15 07:21:17;;;;;;;0.60;0.50;;;8.80;99.90;;;;;;5040468;28;20182;-61
2023/01/15 07:23:43;;;;;;;0.50;0.40;;;8.60;99.90;;;;;;5039292;28;20194;-61
2023/01/15 07:26:08;;;;;;;0.60;0.50;;;8.70;99.90;;;;;;5040638;28;20457;-61
2023/01/15 07:28:34;;;;;;;0.50;0.40;;;8.40;99.90;;;;;;5047432;28;20272;-61
2023/01/15 07:31:00;;;;;;;0.60;0.40;;;8.20;99.90;;;;;;5043134;28;20193;-61
2023/01/15 07:33:25;;;;;;;0.70;0.50;;;8.20;99.90;;;;;;5045319;28;20186;-61
2023/01/15 07:35:51;;;;;;;0.63;0.50;;;8.10;99.90;;;;;;5040903;28;20827;-61
2023/01/15 07:38:16;;;;;;;0.53;0.50;;;8.40;99.90;;;;;;5041324;28;20186;-61
2023/01/15 07:40:42;;;;;;;0.67;0.40;;;7.50;99.90;;;;;;5043004;28;20190;-61
2023/01/15 07:51:22;;;;;;;0.65;0.50;;;7.90;99.90;;;;;;5043450;28;20677;-61
2023/01/15 07:53:47;;;;;;;0.60;0.40;;;7.90;99.90;;;;;;5045716;28;20185;-61
2023/01/15 07:56:13;;;;;;;0.60;0.50;;;8.00;99.90;;;;;;5044721;28;20217;-61
2023/01/15 07:58:39;;;;;;;0.70;0.50;;;8.10;99.90;;;;;;5045499;28;20661;-61
2023/01/15 08:01:05;;;;;;;0.60;0.50;;;8.30;99.90;;;;;;5041807;28;20186;-61
2023/01/15 08:03:30;;;;;;;0.60;0.40;;;8.10;99.90;;;;;;5041473;28;20190;-61
2023/01/15 08:05:56;;;;;;;0.60;0.50;;;8.20;99.90;;;;;;5046750;28;20654;-61
2023/01/15 08:08:21;;;;;;;0.60;0.50;;;8.20;99.90;;;;;;5037465;28;20737;-61
2023/01/15 08:16:16;;;;;;;0.60;0.50;;;8.20;99.90;;;;;;5037669;28;20795;-61
2023/01/15 08:18:41;;;;;;;0.70;0.60;;;7.70;99.90;;;;;;5039507;28;20207;-60
2023/01/15 08:21:14;;;;;;;0.77;0.53;;;8.10;99.90;;;;;;5043082;28;20473;-61
2023/01/15 08:23:42;;;;;;;0.93;0.50;;;8.00;99.90;;;;;;5043693;28;20205;-61
2023/01/15 08:26:07;;;;;;;0.50;0.40;;;7.90;99.90;;;;;;5045794;28;20205;-61
2023/01/15 08:28:33;;;;;;;4.83;0.97;;;8.00;99.90;;;;;;5045175;28;20724;-61
2023/01/15 08:30:58;;;;;;;0.70;0.50;;;8.10;99.90;;;;;;5041665;28;20221;-60
2023/01/15 08:33:24;;;;;;;0.70;0.63;;;8.10;99.90;;;;;;5045553;28;20194;-59
2023/01/15 08:35:50;;;;;;;0.60;0.50;;;8.00;99.90;;;;;;5043225;28;20237;-61
2023/01/15 08:38:16;;;;;;;0.60;0.50;;;7.40;99.90;;;;;;5044003;28;20217;-60
2023/01/15 08:41:02;;;;;;;0.63;0.60;;;7.90;99.90;;;;;;5039589;28;20186;-60
2023/01/15 08:43:30;;;;;;;0.60;0.52;;;8.20;99.90;;;;;;5040643;28;20173;-60
2023/01/15 08:46:00;;;;;;;0.60;0.50;;;8.00;99.90;;;;;;5044529;28;20300;-60
2023/01/15 08:48:27;;;;;;;0.70;0.60;;;8.30;99.90;;;;;;5039857;28;20213;-60
2023/01/15 08:50:53;;;;;;;0.60;0.50;;;8.60;99.90;;;;;;5045654;28;20588;-60
2023/01/15 08:53:19;;;;;;;0.60;0.50;;;8.20;99.90;;;;;;5039211;28;20228;-61
2023/01/15 08:55:46;;;;;;;0.60;0.50;;;8.10;99.90;;;;;;5043666;28;20292;-60
2023/01/15 08:58:11;;;;;;;0.60;0.40;;;8.70;99.90;;;;;;5038317;28;20623;-60
2023/01/15 09:00:37;;;;;;;0.70;0.50;;;8.20;99.90;;;;;;5043167;28;20274;-60
2023/01/15 09:03:03;;;;;;;1.00;0.50;;;8.20;99.90;;;;;;5037234;28;20189;-60
2023/01/15 09:05:29;;;;;;;0.60;0.40;;;8.30;99.90;;;;;;5044345;28;20252;-60
2023/01/15 09:07:54;;;;;;;0.75;0.50;;;8.10;99.90;;;;;;5047461;28;20262;-60
2023/01/15 09:10:21;;;;;;;1.17;0.53;;;8.60;99.90;;;;;;5038900;28;20186;-60
2023/01/15 09:12:47;;;;;;;0.60;0.60;;;8.20;99.90;;;;;;5044270;28;20477;-60
2023/01/15 09:15:12;;;;;;;0.60;0.53;;;8.40;99.90;;;;;;5041495;28;20670;-59
2023/01/15 09:17:39;;;;;;;0.80;0.50;;;8.30;99.90;;;;;;5041346;28;20610;-59
2023/01/15 09:20:08;;;;;;;1.02;0.75;;;8.30;99.90;;;;;;5045130;28;20185;-60
2023/01/15 09:22:34;;;;;;;1.00;0.80;;;8.20;99.90;;;;;;5043716;28;20611;-59
2023/01/15 09:25:00;;;;;;;0.70;0.40;;;8.10;99.90;;;;;;5041765;28;20251;-60
2023/01/15 09:27:26;;;;;;;0.90;0.60;;;8.20;99.90;;;;;;5048725;28;20216;-59
2023/01/15 09:29:52;;;;;;;0.73;0.57;;;8.00;99.90;;;;;;5045274;28;20552;-59
2023/01/15 09:32:18;;;;;;;1.30;0.60;;;8.40;99.90;;;;;;5047810;28;20181;-59
2023/01/15 09:34:43;;;;;;;0.60;0.50;;;8.30;99.90;;;;;;5049948;28;20319;-59
2023/01/15 09:37:09;;;;;;;0.70;0.60;;;8.40;99.90;;;;;;5041514;28;20418;-59
2023/01/15 09:39:37;;;;;;;0.90;0.67;;;8.60;99.90;;;;;;5042935;28;20588;-61
2023/01/15 09:42:29;;;;;;;0.70;0.70;;;8.60;99.90;;;;;;5046478;28;20200;-59
2023/01/15 09:45:46;;;;;;;1.23;0.90;;;8.90;99.90;;;;;;5044594;28;20217;-59
2023/01/15 09:48:26;;;;;;;0.80;0.80;;;8.70;99.90;;;;;;5004453;28;20207;-59
2023/01/15 09:51:29;;;;;;;0.65;0.60;;;8.70;99.90;;;;;;4988875;28;20186;-59
2023/01/15 09:54:23;;;;;;;0.60;0.50;;;8.90;99.90;;;;;;5038948;28;20654;-60
2023/01/15 09:56:49;;;;;;;0.60;0.50;;;8.50;99.90;;;;;;5040134;28;20183;-60
2023/01/15 09:59:28;;;;;;;1.63;1.07;;;8.30;99.90;;;;;;5045051;28;20284;-59
2023/01/15 10:01:54;;;;;;;1.25;0.75;;;8.90;99.90;;;;;;5039718;28;20501;-62
2023/01/15 10:04:29;;;;;;;0.80;0.63;;;8.30;99.90;;;;;;5047130;28;20303;-59
2023/01/15 10:07:03;;;;;;;0.90;0.70;;;8.50;99.90;;;;;;5057166;28;20788;-59
2023/01/15 10:09:36;;;;;;;1.00;0.73;;;8.50;99.90;;;;;;5041961;28;20184;-59
2023/01/15 10:12:35;;;;;;;0.73;0.60;;;8.50;99.90;;;;;;5038496;28;20238;-60
2023/01/15 10:15:18;;;;;;;0.70;0.60;;;8.60;99.90;;;;;;5038881;28;20308;-60
2023/01/15 10:17:54;;;;;;;1.00;0.60;;;8.60;99.90;;;;;;5035412;28;20226;-60
2023/01/15 10:20:48;;;;;;;0.70;0.60;;;8.50;99.90;;;;;;5039040;28;20189;-59
2023/01/15 10:23:37;;;;;;;0.80;0.60;;;8.80;99.90;;;;;;5043354;28;20589;-60
2023/01/15 10:26:22;;;;;;;1.13;0.70;;;8.60;99.90;;;;;;5045347;28;20237;-59
2023/01/15 10:29:02;;;;;;;1.75;0.60;;;8.50;99.90;;;;;;5045503;28;20761;-59
2023/01/15 10:31:51;;;;;;;1.00;0.70;;;8.40;99.90;;;;;;5043391;28;20189;-59
2023/01/15 10:34:35;;;;;;;0.90;0.60;;;8.50;99.90;;;;;;5047609;28;20191;-59
2023/01/15 10:37:09;;;;;;;0.60;0.50;;;8.50;99.90;;;;;;5045454;28;20190;-58
2023/01/15 10:39:47;;;;;;;0.60;0.50;;;8.30;99.90;;;;;;5059959;28;20284;-59
2023/01/15 10:42:52;;;;;;;0.80;0.60;;;8.20;99.90;;;;;;5048604;28;20209;-60
2023/01/15 10:45:28;;;;;;;1.13;0.70;;;8.00;99.90;;;;;;5046858;28;20659;-60
2023/01/15 10:48:10;;;;;;;0.60;0.50;;;8.10;99.90;;;;;;5043167;28;20626;-60
2023/01/15 10:50:36;;;;;;;0.85;0.80;;;8.50;99.90;;;;;;5049501;28;20193;-60
2023/01/15 10:53:26;;;;;;;1.10;0.87;;;8.30;99.90;;;;;;5044113;28;20570;-60
2023/01/15 10:55:58;;;;;;;1.95;0.60;;;7.90;99.90;;;;;;5041482;28;20442;-60
2023/01/15 10:58:36;;;;;;;1.00;0.95;;;8.30;99.90;;;;;;5046087;28;20598;-60
2023/01/15 11:01:15;;;;;;;0.80;0.60;;;8.20;99.90;;;;;;5046432;28;20185;-60
2023/01/15 11:03:42;;;;;;;1.38;0.77;;;8.00;99.90;;;;;;5047526;28;20208;-59
2023/01/15 11:06:15;;;;;;;0.88;0.73;;;8.10;99.90;;;;;;5047271;28;20197;-59
2023/01/15 11:08:44;;;;;;;0.60;0.50;;;8.00;99.90;;;;;;5044651;28;20205;-59
2023/01/15 11:19:42;;;;;;;0.70;0.50;;;7.60;99.90;;;;;;5045672;28;20187;-60
2023/01/15 11:22:17;;;;;;;0.90;0.65;;;7.60;99.90;;;;;;5049351;28;20419;-61
2023/01/15 11:24:45;;;;;;;0.70;0.50;;;6.80;99.90;;;;;;5043757;28;20209;-60
2023/01/15 11:27:19;;;;;;;0.85;0.40;;;7.10;99.90;;;;;;5046239;28;20189;-60
2023/01/15 11:29:51;;;;;;;0.98;0.57;;;6.90;99.90;;;;;;5044408;28;20269;-58
2023/01/15 11:32:28;;;;;;;0.60;0.50;;;7.00;99.90;;;;;;5046968;28;20212;-60
2023/01/15 11:34:56;;;;;;;0.80;0.50;;;7.00;99.90;;;;;;5059664;28;20292;-60
2023/01/15 11:37:22;;;;;;;0.60;0.60;;;7.10;99.90;;;;;;5043569;28;20185;-60
2023/01/15 11:39:56;;;;;;;1.10;1.00;;;6.90;99.90;;;;;;5046382;28;20199;-61
2023/01/15 11:51:07;;;;;;;0.60;0.50;;;6.80;99.90;;;;;;5045716;28;20673;-60
2023/01/15 11:53:45;;;;;;;0.70;0.50;;;6.80;99.90;;;;;;5042978;28;20188;-61
2023/01/15 11:56:17;;;;;;;0.57;0.45;;;6.90;99.90;;;;;;5036648;28;20198;-59
2023/01/15 11:58:55;;;;;;;0.90;0.70;;;6.70;99.90;;;;;;5041278;28;20212;-58
2023/01/15 12:01:33;;;;;;;0.70;0.50;;;6.50;99.90;;;;;;5041450;28;20302;-59
2023/01/15 12:04:02;;;;;;;0.68;0.55;;;6.50;99.90;;;;;;5044979;28;20734;-60
2023/01/15 12:06:30;;;;;;;0.60;0.60;;;6.70;99.90;;;;;;5039902;28;20210;-58
2023/01/15 12:09:28;;;;;;;0.60;0.52;;;6.00;99.90;;;;;;5041729;28;20687;-60
2023/01/15 12:12:07;;;;;;;0.90;0.60;;;6.40;99.90;;;;;;5037945;28;20683;-59
2023/01/15 12:14:43;;;;;;;0.60;0.50;;;6.20;99.90;;;;;;5037715;28;20217;-60
2023/01/15 12:17:46;;;;;;;0.80;0.60;;;6.30;99.90;;;;;;5038776;28;20220;-60
2023/01/15 12:20:50;;;;;;;0.60;0.40;;;6.40;99.90;;;;;;5042352;28;20356;-60
2023/01/15 12:23:47;;;;;;;0.60;0.50;;;6.40;99.90;;;;;;5041024;28;20250;-59
2023/01/15 12:26:19;;;;;;;0.80;0.60;;;6.30;99.90;;;;;;5042113;28;20208;-60
2023/01/15 12:29:01;;;;;;;2.03;0.50;;;6.40;99.90;;;;;;5037932;28;20205;-59
2023/01/15 12:31:48;;;;;;;1.08;0.63;;;6.20;99.90;;;;;;5043166;28;20279;-59
2023/01/15 12:34:25;;;;;;;1.05;0.50;;;6.40;99.90;;;;;;5046767;28;20222;-59
2023/01/15 12:36:54;;;;;;;0.60;0.50;;;5.80;99.90;;;;;;5042726;28;20181;-59
2023/01/15 12:39:26;;;;;;;2.42;0.85;;;6.10;99.90;;;;;;5044764;28;20184;-60
2023/01/15 12:45:06;;;;;;;0.80;0.50;;;6.20;99.90;;;;;;5043751;28;20217;-60
2023/01/15 12:47:47;;;;;;;2.47;0.82;;;6.30;99.90;;;;;;5041644;28;20226;-60
2023/01/15 12:50:21;;;;;;;3.38;2.58;;;6.20;99.90;;;;;;5045739;28;20277;-60
2023/01/15 12:52:53;;;;;;;1.42;0.90;;;6.40;99.90;;;;;;5044771;28;20223;-60
2023/01/15 12:55:23;;;;;;;1.00;0.70;;;6.40;99.90;;;;;;5048919;28;20273;-60
2023/01/15 12:57:53;;;;;;;0.70;0.70;;;6.60;99.90;;;;;;5043014;28;20227;-60
2023/01/15 13:00:29;;;;;;;1.20;0.60;;;5.90;99.90;;;;;;5040003;28;20239;-61
2023/01/15 13:03:13;;;;;;;1.23;0.70;;;6.40;99.90;;;;;;5044399;28;20817;-60
2023/01/15 13:06:04;;;;;;;0.90;0.80;;;6.50;99.90;;;;;;5045068;28;20210;-60
2023/01/15 13:08:46;;;;;;;2.28;0.85;;;6.50;99.90;;;;;;5038884;28;20203;-60
2023/01/15 13:11:12;;;;;;;0.60;0.60;;;6.40;99.90;;;;;;5044011;28;20255;-60
2023/01/15 13:13:42;;;;;;;0.80;0.60;;;6.50;99.90;;;;;;5043750;28;20653;-60
2023/01/15 13:16:22;;;;;;;1.50;0.63;;;6.30;99.90;;;;;;5041620;28;20202;-60
2023/01/15 13:19:31;;;;;;;0.88;0.73;;;6.60;99.90;;;;;;5044896;28;20228;-60
2023/01/15 13:22:00;;;;;;;1.58;0.68;;;6.40;99.90;;;;;;5043443;28;20189;-60
2023/01/15 13:24:41;;;;;;;1.50;0.80;;;6.80;99.90;;;;;;5044583;28;20902;-60
2023/01/15 13:27:20;;;;;;;0.70;0.60;;;6.60;99.90;;;;;;5038954;28;20235;-61
2023/01/15 13:30:11;;;;;;;0.80;0.70;;;7.10;99.90;;;;;;5039853;28;20307;-60
2023/01/15 13:32:52;;;;;;;5.03;0.80;;;6.60;99.90;;;;;;5036174;28;20716;-60
2023/01/15 13:35:39;;;;;;;1.73;0.80;;;6.60;99.90;;;;;;5043152;28;20319;-61
2023/01/15 13:38:13;;;;;;;1.00;0.77;;;6.60;99.90;;;;;;5031200;28;20198;-60
2023/01/15 13:40:49;;;;;;;0.73;0.68;;;6.90;99.90;;;;;;5038032;28;20196;-60
2023/01/15 13:43:25;;;;;;;3.00;0.80;;;6.70;99.90;;;;;;5040750;28;20375;-60
2023/01/15 13:45:51;;;;;;;1.92;0.98;;;6.70;99.90;;;;;;5039208;28;20235;-61
2023/01/15 13:48:39;;;;;;;1.77;1.27;;;6.70;99.90;;;;;;5040982;28;20213;-60
2023/01/15 13:51:16;;;;;;;1.23;1.00;;;7.00;99.90;;;;;;5036948;28;20238;-58
2023/01/15 13:53:47;;;;;;;1.13;0.80;;;7.40;99.90;;;;;;5039965;28;20189;-60
2023/01/15 13:56:24;;;;;;;1.98;0.98;;;6.80;99.90;;;;;;5040211;28;20675;-60
2023/01/15 13:59:04;;;;;;;1.13;1.02;;;6.60;99.90;;;;;;5040643;28;20203;-60
2023/01/15 14:01:29;;;;;;;1.23;1.13;;;6.80;99.90;;;;;;5035300;28;20551;-60
2023/01/15 14:04:14;;;;;;;2.40;0.70;;;6.80;99.90;;;;;;5037931;28;20186;-61